sensor_id;sensor_type;location;lat;lon;timestamp;P1;durP1;ratioP1;P2;durP2;ratioP2
14001;SDS011;7076;51.280;12.584;2023-06-10T00:01:45;5.95;;;3.92;;
14001;SDS011;7076;51.280;12.584;2023-06-10T00:06:49;5.43;;;3.92;;
14001;SDS011;7076;51.280;12.584;2023-06-10T00:11:54;6.28;;;4.10;;
14001;SDS011;7076;51.280;12.584;2023-06-10T00:16:56;5.63;;;3.95;;
14001;SDS011;7076;51.280;12.584;2023-06-10T00:21:59;6.60;;;3.88;;
14001;SDS011;7076;51.280;12.584;2023-06-10T00:27:04;7.30;;;3.35;;
14001;SDS011;7076;51.280;12.584;2023-06-10T00:32:08;5.00;;;3.60;;
14001;SDS011;7076;51.280;12.584;2023-06-10T00:37:11;6.38;;;3.35;;
14001;SDS011;7076;51.280;12.584;2023-06-10T00:42:16;7.35;;;3.20;;
14001;SDS011;7076;51.280;12.584;2023-06-10T00:47:19;4.20;;;2.65;;
14001;SDS011;7076;51.280;12.584;2023-06-10T00:52:22;5.50;;;3.00;;
14001;SDS011;7076;51.280;12.584;2023-06-10T00:57:29;6.82;;;3.47;;
14001;SDS011;7076;51.280;12.584;2023-06-10T01:02:33;5.50;;;3.10;;
14001;SDS011;7076;51.280;12.584;2023-06-10T01:07:37;6.60;;;3.40;;
14001;SDS011;7076;51.280;12.584;2023-06-10T01:12:45;4.70;;;3.28;;
14001;SDS011;7076;51.280;12.584;2023-06-10T01:17:54;3.47;;;2.90;;
14001;SDS011;7076;51.280;12.584;2023-06-10T01:23:01;5.30;;;2.67;;
14001;SDS011;7076;51.280;12.584;2023-06-10T01:28:07;3.63;;;2.95;;
14001;SDS011;7076;51.280;12.584;2023-06-10T01:33:15;4.50;;;2.92;;
14001;SDS011;7076;51.280;12.584;2023-06-10T01:38:22;3.78;;;2.92;;
14001;SDS011;7076;51.280;12.584;2023-06-10T01:43:26;8.25;;;3.38;;
14001;SDS011;7076;51.280;12.584;2023-06-10T01:48:29;5.38;;;2.95;;
14001;SDS011;7076;51.280;12.584;2023-06-10T01:53:33;7.88;;;3.15;;
14001;SDS011;7076;51.280;12.584;2023-06-10T01:58:36;5.38;;;3.08;;
14001;SDS011;7076;51.280;12.584;2023-06-10T02:03:40;7.20;;;3.60;;
14001;SDS011;7076;51.280;12.584;2023-06-10T02:08:44;5.00;;;3.13;;
14001;SDS011;7076;51.280;12.584;2023-06-10T02:13:47;4.57;;;3.05;;
14001;SDS011;7076;51.280;12.584;2023-06-10T02:18:50;5.53;;;3.20;;
14001;SDS011;7076;51.280;12.584;2023-06-10T02:23:54;4.97;;;3.30;;
14001;SDS011;7076;51.280;12.584;2023-06-10T02:28:57;4.63;;;3.30;;
14001;SDS011;7076;51.280;12.584;2023-06-10T02:34:00;3.33;;;2.80;;
14001;SDS011;7076;51.280;12.584;2023-06-10T02:39:06;4.45;;;3.42;;
14001;SDS011;7076;51.280;12.584;2023-06-10T02:44:09;7.57;;;3.88;;
14001;SDS011;7076;51.280;12.584;2023-06-10T02:49:13;7.47;;;3.17;;
14001;SDS011;7076;51.280;12.584;2023-06-10T02:54:18;3.55;;;3.10;;
14001;SDS011;7076;51.280;12.584;2023-06-10T02:59:21;5.95;;;3.45;;
14001;SDS011;7076;51.280;12.584;2023-06-10T03:04:24;4.57;;;3.60;;
14001;SDS011;7076;51.280;12.584;2023-06-10T03:09:38;4.00;;;3.15;;
14001;SDS011;7076;51.280;12.584;2023-06-10T03:14:45;5.88;;;3.50;;
14001;SDS011;7076;51.280;12.584;2023-06-10T03:19:49;4.95;;;3.33;;
14001;SDS011;7076;51.280;12.584;2023-06-10T03:24:54;4.82;;;3.20;;
14001;SDS011;7076;51.280;12.584;2023-06-10T03:29:59;5.32;;;3.70;;
14001;SDS011;7076;51.280;12.584;2023-06-10T03:35:03;5.47;;;3.42;;
14001;SDS011;7076;51.280;12.584;2023-06-10T03:40:10;5.85;;;3.53;;
14001;SDS011;7076;51.280;12.584;2023-06-10T03:45:16;4.00;;;3.60;;
14001;SDS011;7076;51.280;12.584;2023-06-10T03:50:20;5.35;;;3.65;;
14001;SDS011;7076;51.280;12.584;2023-06-10T03:55:27;7.03;;;3.47;;
14001;SDS011;7076;51.280;12.584;2023-06-10T04:00:32;8.48;;;3.97;;
14001;SDS011;7076;51.280;12.584;2023-06-10T04:05:43;5.82;;;4.03;;
14001;SDS011;7076;51.280;12.584;2023-06-10T04:10:47;4.82;;;3.75;;
14001;SDS011;7076;51.280;12.584;2023-06-10T04:15:50;5.03;;;3.72;;
14001;SDS011;7076;51.280;12.584;2023-06-10T04:20:54;7.68;;;3.88;;
14001;SDS011;7076;51.280;12.584;2023-06-10T04:25:59;4.38;;;3.85;;
14001;SDS011;7076;51.280;12.584;2023-06-10T04:31:03;6.88;;;4.45;;
14001;SDS011;7076;51.280;12.584;2023-06-10T04:36:06;6.95;;;4.50;;
14001;SDS011;7076;51.280;12.584;2023-06-10T04:41:11;5.47;;;4.35;;
14001;SDS011;7076;51.280;12.584;2023-06-10T04:46:14;8.52;;;4.57;;
14001;SDS011;7076;51.280;12.584;2023-06-10T04:51:18;7.05;;;4.60;;
14001;SDS011;7076;51.280;12.584;2023-06-10T04:56:22;6.20;;;4.47;;
14001;SDS011;7076;51.280;12.584;2023-06-10T05:01:25;6.00;;;4.45;;
14001;SDS011;7076;51.280;12.584;2023-06-10T05:06:29;5.75;;;4.70;;
14001;SDS011;7076;51.280;12.584;2023-06-10T05:11:33;6.22;;;4.78;;
14001;SDS011;7076;51.280;12.584;2023-06-10T05:16:36;7.07;;;4.97;;
14001;SDS011;7076;51.280;12.584;2023-06-10T05:21:39;8.10;;;5.00;;
14001;SDS011;7076;51.280;12.584;2023-06-10T05:26:43;8.13;;;5.18;;
14001;SDS011;7076;51.280;12.584;2023-06-10T05:31:46;6.53;;;4.65;;
14001;SDS011;7076;51.280;12.584;2023-06-10T05:36:48;7.45;;;4.82;;
14001;SDS011;7076;51.280;12.584;2023-06-10T05:41:52;6.93;;;5.15;;
14001;SDS011;7076;51.280;12.584;2023-06-10T05:46:55;6.28;;;4.97;;
14001;SDS011;7076;51.280;12.584;2023-06-10T05:51:58;8.60;;;5.30;;
14001;SDS011;7076;51.280;12.584;2023-06-10T05:57:02;6.35;;;4.95;;
14001;SDS011;7076;51.280;12.584;2023-06-10T06:02:07;5.95;;;5.35;;
14001;SDS011;7076;51.280;12.584;2023-06-10T06:07:10;8.02;;;5.80;;
14001;SDS011;7076;51.280;12.584;2023-06-10T06:12:14;9.00;;;5.65;;
14001;SDS011;7076;51.280;12.584;2023-06-10T06:17:17;8.65;;;6.00;;
14001;SDS011;7076;51.280;12.584;2023-06-10T06:22:20;9.55;;;6.00;;
14001;SDS011;7076;51.280;12.584;2023-06-10T06:27:25;7.80;;;5.35;;
14001;SDS011;7076;51.280;12.584;2023-06-10T06:32:27;7.63;;;6.18;;
14001;SDS011;7076;51.280;12.584;2023-06-10T06:37:30;10.57;;;5.82;;
14001;SDS011;7076;51.280;12.584;2023-06-10T06:42:50;8.85;;;6.50;;
14001;SDS011;7076;51.280;12.584;2023-06-10T06:48:15;11.05;;;6.88;;
14001;SDS011;7076;51.280;12.584;2023-06-10T06:53:19;9.50;;;7.00;;
14001;SDS011;7076;51.280;12.584;2023-06-10T06:58:23;7.65;;;5.97;;
14001;SDS011;7076;51.280;12.584;2023-06-10T07:03:26;9.75;;;6.80;;
14001;SDS011;7076;51.280;12.584;2023-06-10T07:08:29;10.27;;;6.60;;
14001;SDS011;7076;51.280;12.584;2023-06-10T07:13:33;9.20;;;6.47;;
14001;SDS011;7076;51.280;12.584;2023-06-10T07:18:36;9.07;;;6.13;;
14001;SDS011;7076;51.280;12.584;2023-06-10T07:23:41;11.98;;;7.40;;
14001;SDS011;7076;51.280;12.584;2023-06-10T07:28:45;9.38;;;6.85;;
14001;SDS011;7076;51.280;12.584;2023-06-10T07:33:48;8.80;;;7.32;;
14001;SDS011;7076;51.280;12.584;2023-06-10T07:38:51;10.73;;;7.22;;
14001;SDS011;7076;51.280;12.584;2023-06-10T07:43:55;8.75;;;6.68;;
14001;SDS011;7076;51.280;12.584;2023-06-10T07:48:58;10.77;;;6.75;;
14001;SDS011;7076;51.280;12.584;2023-06-10T07:54:01;8.98;;;6.90;;
14001;SDS011;7076;51.280;12.584;2023-06-10T07:59:05;8.75;;;6.70;;
14001;SDS011;7076;51.280;12.584;2023-06-10T08:04:08;11.27;;;7.43;;
14001;SDS011;7076;51.280;12.584;2023-06-10T08:09:12;8.43;;;6.35;;
14001;SDS011;7076;51.280;12.584;2023-06-10T08:14:16;7.13;;;6.30;;
14001;SDS011;7076;51.280;12.584;2023-06-10T08:19:19;10.02;;;6.80;;
14001;SDS011;7076;51.280;12.584;2023-06-10T08:24:22;8.15;;;6.75;;
14001;SDS011;7076;51.280;12.584;2023-06-10T08:29:26;8.63;;;6.72;;
14001;SDS011;7076;51.280;12.584;2023-06-10T08:34:32;7.82;;;6.20;;
14001;SDS011;7076;51.280;12.584;2023-06-10T08:39:36;6.82;;;6.22;;
14001;SDS011;7076;51.280;12.584;2023-06-10T08:44:40;8.75;;;6.55;;
14001;SDS011;7076;51.280;12.584;2023-06-10T08:49:45;9.40;;;6.18;;
14001;SDS011;7076;51.280;12.584;2023-06-10T08:54:49;8.02;;;6.10;;
14001;SDS011;7076;51.280;12.584;2023-06-10T08:59:56;6.95;;;6.25;;
14001;SDS011;7076;51.280;12.584;2023-06-10T09:05:00;7.05;;;5.78;;
14001;SDS011;7076;51.280;12.584;2023-06-10T09:10:03;8.23;;;6.07;;
14001;SDS011;7076;51.280;12.584;2023-06-10T09:15:11;6.70;;;6.10;;
14001;SDS011;7076;51.280;12.584;2023-06-10T09:20:16;14.18;;;6.97;;
14001;SDS011;7076;51.280;12.584;2023-06-10T09:25:18;7.38;;;6.30;;
14001;SDS011;7076;51.280;12.584;2023-06-10T09:30:26;8.80;;;6.75;;
14001;SDS011;7076;51.280;12.584;2023-06-10T09:35:30;7.28;;;6.30;;
14001;SDS011;7076;51.280;12.584;2023-06-10T09:40:33;8.43;;;6.40;;
14001;SDS011;7076;51.280;12.584;2023-06-10T09:45:52;8.32;;;7.10;;
14001;SDS011;7076;51.280;12.584;2023-06-10T09:50:58;7.63;;;6.18;;
14001;SDS011;7076;51.280;12.584;2023-06-10T09:56:01;7.72;;;6.63;;
14001;SDS011;7076;51.280;12.584;2023-06-10T10:01:06;9.98;;;6.55;;
14001;SDS011;7076;51.280;12.584;2023-06-10T10:06:12;8.25;;;5.80;;
14001;SDS011;7076;51.280;12.584;2023-06-10T10:11:16;6.80;;;6.10;;
14001;SDS011;7076;51.280;12.584;2023-06-10T10:16:23;11.35;;;6.30;;
14001;SDS011;7076;51.280;12.584;2023-06-10T10:21:31;7.13;;;6.45;;
14001;SDS011;7076;51.280;12.584;2023-06-10T10:26:35;7.82;;;6.30;;
14001;SDS011;7076;51.280;12.584;2023-06-10T10:31:40;7.25;;;5.55;;
14001;SDS011;7076;51.280;12.584;2023-06-10T10:36:45;5.80;;;5.30;;
14001;SDS011;7076;51.280;12.584;2023-06-10T10:41:49;7.18;;;5.30;;
14001;SDS011;7076;51.280;12.584;2023-06-10T10:46:54;6.07;;;5.57;;
14001;SDS011;7076;51.280;12.584;2023-06-10T10:51:58;6.25;;;5.63;;
14001;SDS011;7076;51.280;12.584;2023-06-10T10:57:11;6.20;;;5.40;;
14001;SDS011;7076;51.280;12.584;2023-06-10T11:02:17;5.43;;;4.93;;
14001;SDS011;7076;51.280;12.584;2023-06-10T11:07:20;5.60;;;5.00;;
14001;SDS011;7076;51.280;12.584;2023-06-10T11:12:23;4.63;;;4.22;;
14001;SDS011;7076;51.280;12.584;2023-06-10T11:17:28;5.72;;;5.15;;
14001;SDS011;7076;51.280;12.584;2023-06-10T11:22:31;7.60;;;4.72;;
14001;SDS011;7076;51.280;12.584;2023-06-10T11:27:37;5.20;;;4.70;;
14001;SDS011;7076;51.280;12.584;2023-06-10T11:32:42;6.80;;;4.90;;
14001;SDS011;7076;51.280;12.584;2023-06-10T11:37:46;4.70;;;4.30;;
14001;SDS011;7076;51.280;12.584;2023-06-10T11:42:49;5.93;;;4.63;;
14001;SDS011;7076;51.280;12.584;2023-06-10T11:47:57;5.07;;;4.60;;
14001;SDS011;7076;51.280;12.584;2023-06-10T11:53:00;5.35;;;4.25;;
14001;SDS011;7076;51.280;12.584;2023-06-10T11:58:03;4.22;;;3.83;;
14001;SDS011;7076;51.280;12.584;2023-06-10T12:03:07;6.40;;;3.70;;
14001;SDS011;7076;51.280;12.584;2023-06-10T12:08:11;4.20;;;3.80;;
14001;SDS011;7076;51.280;12.584;2023-06-10T12:13:14;4.18;;;3.55;;
14001;SDS011;7076;51.280;12.584;2023-06-10T12:18:20;3.95;;;3.60;;
14001;SDS011;7076;51.280;12.584;2023-06-10T12:23:24;5.22;;;4.72;;
14001;SDS011;7076;51.280;12.584;2023-06-10T12:28:27;4.13;;;3.38;;
14001;SDS011;7076;51.280;12.584;2023-06-10T12:33:32;3.47;;;3.17;;
14001;SDS011;7076;51.280;12.584;2023-06-10T12:38:34;4.10;;;3.53;;
14001;SDS011;7076;51.280;12.584;2023-06-10T12:43:39;6.38;;;3.50;;
14001;SDS011;7076;51.280;12.584;2023-06-10T12:48:50;4.30;;;3.60;;
14001;SDS011;7076;51.280;12.584;2023-06-10T12:53:55;8.98;;;3.60;;
14001;SDS011;7076;51.280;12.584;2023-06-10T12:58:58;4.55;;;3.95;;
14001;SDS011;7076;51.280;12.584;2023-06-10T13:04:02;4.15;;;3.08;;
14001;SDS011;7076;51.280;12.584;2023-06-10T13:09:07;3.97;;;3.08;;
14001;SDS011;7076;51.280;12.584;2023-06-10T13:14:10;3.75;;;2.90;;
14001;SDS011;7076;51.280;12.584;2023-06-10T13:19:15;3.60;;;3.30;;
14001;SDS011;7076;51.280;12.584;2023-06-10T13:24:17;3.75;;;3.35;;
14001;SDS011;7076;51.280;12.584;2023-06-10T13:29:22;4.85;;;3.38;;
14001;SDS011;7076;51.280;12.584;2023-06-10T13:34:27;3.03;;;2.72;;
14001;SDS011;7076;51.280;12.584;2023-06-10T13:39:30;3.05;;;2.80;;
14001;SDS011;7076;51.280;12.584;2023-06-10T13:44:33;5.47;;;3.00;;
14001;SDS011;7076;51.280;12.584;2023-06-10T13:49:39;3.38;;;2.30;;
14001;SDS011;7076;51.280;12.584;2023-06-10T13:54:42;2.65;;;2.45;;
14001;SDS011;7076;51.280;12.584;2023-06-10T13:59:45;3.40;;;2.20;;
14001;SDS011;7076;51.280;12.584;2023-06-10T14:04:49;3.10;;;2.42;;
14001;SDS011;7076;51.280;12.584;2023-06-10T14:09:52;2.25;;;2.05;;
14001;SDS011;7076;51.280;12.584;2023-06-10T14:14:55;2.15;;;2.00;;
14001;SDS011;7076;51.280;12.584;2023-06-10T14:19:59;2.50;;;2.30;;
14001;SDS011;7076;51.280;12.584;2023-06-10T14:25:02;2.35;;;2.00;;
14001;SDS011;7076;51.280;12.584;2023-06-10T14:30:06;2.75;;;2.33;;
14001;SDS011;7076;51.280;12.584;2023-06-10T14:35:11;2.33;;;2.10;;
14001;SDS011;7076;51.280;12.584;2023-06-10T14:40:14;4.53;;;2.30;;
14001;SDS011;7076;51.280;12.584;2023-06-10T14:45:17;4.15;;;2.58;;
14001;SDS011;7076;51.280;12.584;2023-06-10T14:50:22;6.47;;;2.53;;
14001;SDS011;7076;51.280;12.584;2023-06-10T14:55:25;6.65;;;4.03;;
14001;SDS011;7076;51.280;12.584;2023-06-10T15:00:27;3.55;;;3.20;;
14001;SDS011;7076;51.280;12.584;2023-06-10T15:05:32;4.65;;;3.30;;
14001;SDS011;7076;51.280;12.584;2023-06-10T15:10:36;3.45;;;2.88;;
14001;SDS011;7076;51.280;12.584;2023-06-10T15:15:39;5.68;;;2.90;;
14001;SDS011;7076;51.280;12.584;2023-06-10T15:20:43;3.60;;;2.85;;
14001;SDS011;7076;51.280;12.584;2023-06-10T15:25:46;2.90;;;2.70;;
14001;SDS011;7076;51.280;12.584;2023-06-10T15:30:49;3.30;;;2.83;;
14001;SDS011;7076;51.280;12.584;2023-06-10T15:35:53;3.00;;;2.78;;
14001;SDS011;7076;51.280;12.584;2023-06-10T15:40:56;3.17;;;2.50;;
14001;SDS011;7076;51.280;12.584;2023-06-10T15:45:59;3.60;;;2.45;;
14001;SDS011;7076;51.280;12.584;2023-06-10T15:51:03;2.90;;;2.60;;
14001;SDS011;7076;51.280;12.584;2023-06-10T15:56:06;4.47;;;3.08;;
14001;SDS011;7076;51.280;12.584;2023-06-10T16:01:09;4.03;;;2.78;;
14001;SDS011;7076;51.280;12.584;2023-06-10T16:06:15;3.78;;;2.95;;
14001;SDS011;7076;51.280;12.584;2023-06-10T16:11:18;3.80;;;3.00;;
14001;SDS011;7076;51.280;12.584;2023-06-10T16:16:21;3.70;;;3.33;;
14001;SDS011;7076;51.280;12.584;2023-06-10T16:21:25;4.68;;;3.30;;
14001;SDS011;7076;51.280;12.584;2023-06-10T16:26:28;4.50;;;3.53;;
14001;SDS011;7076;51.280;12.584;2023-06-10T16:31:31;3.65;;;3.35;;
14001;SDS011;7076;51.280;12.584;2023-06-10T16:36:35;6.03;;;4.05;;
14001;SDS011;7076;51.280;12.584;2023-06-10T16:41:38;5.00;;;4.47;;
14001;SDS011;7076;51.280;12.584;2023-06-10T16:46:41;5.57;;;5.00;;
14001;SDS011;7076;51.280;12.584;2023-06-10T16:51:46;6.00;;;5.00;;
14001;SDS011;7076;51.280;12.584;2023-06-10T16:56:49;5.30;;;4.78;;
14001;SDS011;7076;51.280;12.584;2023-06-10T17:01:52;5.55;;;4.88;;
14001;SDS011;7076;51.280;12.584;2023-06-10T17:06:56;10.10;;;5.68;;
14001;SDS011;7076;51.280;12.584;2023-06-10T17:11:59;5.60;;;4.57;;
14001;SDS011;7076;51.280;12.584;2023-06-10T17:17:02;5.15;;;4.68;;
14001;SDS011;7076;51.280;12.584;2023-06-10T17:22:07;5.20;;;4.70;;
14001;SDS011;7076;51.280;12.584;2023-06-10T17:27:10;6.43;;;5.07;;
14001;SDS011;7076;51.280;12.584;2023-06-10T17:32:13;4.93;;;4.43;;
14001;SDS011;7076;51.280;12.584;2023-06-10T17:37:17;6.18;;;4.20;;
14001;SDS011;7076;51.280;12.584;2023-06-10T17:42:20;7.22;;;6.53;;
14001;SDS011;7076;51.280;12.584;2023-06-10T17:47:23;6.10;;;4.43;;
14001;SDS011;7076;51.280;12.584;2023-06-10T17:52:27;5.53;;;4.68;;
14001;SDS011;7076;51.280;12.584;2023-06-10T17:57:31;4.55;;;4.15;;
14001;SDS011;7076;51.280;12.584;2023-06-10T18:02:34;6.93;;;4.20;;
14001;SDS011;7076;51.280;12.584;2023-06-10T18:07:39;7.63;;;4.10;;
14001;SDS011;7076;51.280;12.584;2023-06-10T18:12:43;4.20;;;3.80;;
14001;SDS011;7076;51.280;12.584;2023-06-10T18:17:46;5.05;;;4.40;;
14001;SDS011;7076;51.280;12.584;2023-06-10T18:22:50;8.43;;;6.60;;
14001;SDS011;7076;51.280;12.584;2023-06-10T18:27:53;7.60;;;5.63;;
14001;SDS011;7076;51.280;12.584;2023-06-10T18:32:56;4.65;;;4.20;;
14001;SDS011;7076;51.280;12.584;2023-06-10T18:38:00;7.93;;;4.07;;
14001;SDS011;7076;51.280;12.584;2023-06-10T18:43:03;4.40;;;3.80;;
14001;SDS011;7076;51.280;12.584;2023-06-10T18:48:07;6.40;;;4.20;;
14001;SDS011;7076;51.280;12.584;2023-06-10T18:53:11;7.15;;;4.22;;
14001;SDS011;7076;51.280;12.584;2023-06-10T18:58:14;5.65;;;4.82;;
14001;SDS011;7076;51.280;12.584;2023-06-10T19:03:17;6.25;;;5.65;;
14001;SDS011;7076;51.280;12.584;2023-06-10T19:08:22;7.32;;;5.30;;
14001;SDS011;7076;51.280;12.584;2023-06-10T19:13:25;9.57;;;5.80;;
14001;SDS011;7076;51.280;12.584;2023-06-10T19:18:28;10.20;;;5.50;;
14001;SDS011;7076;51.280;12.584;2023-06-10T19:23:33;5.85;;;5.30;;
14001;SDS011;7076;51.280;12.584;2023-06-10T19:28:37;7.18;;;6.00;;
14001;SDS011;7076;51.280;12.584;2023-06-10T19:33:40;7.22;;;6.53;;
14001;SDS011;7076;51.280;12.584;2023-06-10T19:38:44;6.80;;;6.10;;
14001;SDS011;7076;51.280;12.584;2023-06-10T19:43:47;8.57;;;7.18;;
14001;SDS011;7076;51.280;12.584;2023-06-10T19:48:50;10.70;;;8.40;;
14001;SDS011;7076;51.280;12.584;2023-06-10T19:53:54;8.93;;;7.70;;
14001;SDS011;7076;51.280;12.584;2023-06-10T19:58:57;7.70;;;6.97;;
14001;SDS011;7076;51.280;12.584;2023-06-10T20:04:00;8.40;;;7.32;;
14001;SDS011;7076;51.280;12.584;2023-06-10T20:09:09;10.02;;;7.47;;
14001;SDS011;7076;51.280;12.584;2023-06-10T20:14:13;11.13;;;8.25;;
14001;SDS011;7076;51.280;12.584;2023-06-10T20:19:16;14.82;;;11.23;;
14001;SDS011;7076;51.280;12.584;2023-06-10T20:24:21;15.23;;;11.25;;
14001;SDS011;7076;51.280;12.584;2023-06-10T20:29:24;13.18;;;10.50;;
14001;SDS011;7076;51.280;12.584;2023-06-10T20:34:28;13.15;;;10.57;;
14001;SDS011;7076;51.280;12.584;2023-06-10T20:39:32;9.48;;;8.50;;
14001;SDS011;7076;51.280;12.584;2023-06-10T20:44:35;10.27;;;7.18;;
14001;SDS011;7076;51.280;12.584;2023-06-10T20:49:38;7.93;;;6.88;;
14001;SDS011;7076;51.280;12.584;2023-06-10T20:54:42;8.75;;;7.43;;
14001;SDS011;7076;51.280;12.584;2023-06-10T20:59:45;9.25;;;6.88;;
14001;SDS011;7076;51.280;12.584;2023-06-10T21:04:48;7.43;;;6.28;;
14001;SDS011;7076;51.280;12.584;2023-06-10T21:09:53;8.93;;;7.63;;
14001;SDS011;7076;51.280;12.584;2023-06-10T21:14:56;10.82;;;7.40;;
14001;SDS011;7076;51.280;12.584;2023-06-10T21:19:59;14.63;;;7.75;;
14001;SDS011;7076;51.280;12.584;2023-06-10T21:25:04;9.23;;;8.20;;
14001;SDS011;7076;51.280;12.584;2023-06-10T21:30:09;16.58;;;14.27;;
14001;SDS011;7076;51.280;12.584;2023-06-10T21:35:12;13.20;;;11.20;;
14001;SDS011;7076;51.280;12.584;2023-06-10T21:40:17;11.13;;;9.65;;
14001;SDS011;7076;51.280;12.584;2023-06-10T21:45:20;11.07;;;8.18;;
14001;SDS011;7076;51.280;12.584;2023-06-10T21:50:24;8.57;;;6.43;;
14001;SDS011;7076;51.280;12.584;2023-06-10T21:55:28;6.90;;;5.80;;
14001;SDS011;7076;51.280;12.584;2023-06-10T22:00:31;6.38;;;5.45;;
14001;SDS011;7076;51.280;12.584;2023-06-10T22:05:43;7.18;;;5.82;;
14001;SDS011;7076;51.280;12.584;2023-06-10T22:10:47;9.82;;;6.10;;
14001;SDS011;7076;51.280;12.584;2023-06-10T22:15:50;5.90;;;5.30;;
14001;SDS011;7076;51.280;12.584;2023-06-10T22:20:53;5.93;;;5.32;;
14001;SDS011;7076;51.280;12.584;2023-06-10T22:25:57;8.23;;;5.32;;
14001;SDS011;7076;51.280;12.584;2023-06-10T22:31:00;6.50;;;5.72;;
14001;SDS011;7076;51.280;12.584;2023-06-10T22:36:03;6.68;;;6.03;;
14001;SDS011;7076;51.280;12.584;2023-06-10T22:41:07;9.27;;;5.43;;
14001;SDS011;7076;51.280;12.584;2023-06-10T22:46:11;5.57;;;5.00;;
14001;SDS011;7076;51.280;12.584;2023-06-10T22:51:14;7.43;;;5.65;;
14001;SDS011;7076;51.280;12.584;2023-06-10T22:56:18;7.40;;;4.78;;
14001;SDS011;7076;51.280;12.584;2023-06-10T23:01:21;7.07;;;4.95;;
14001;SDS011;7076;51.280;12.584;2023-06-10T23:06:24;8.20;;;5.25;;
14001;SDS011;7076;51.280;12.584;2023-06-10T23:11:28;5.32;;;4.80;;
14001;SDS011;7076;51.280;12.584;2023-06-10T23:16:32;7.40;;;5.22;;
14001;SDS011;7076;51.280;12.584;2023-06-10T23:21:35;7.63;;;5.00;;
14001;SDS011;7076;51.280;12.584;2023-06-10T23:26:39;8.77;;;4.95;;
14001;SDS011;7076;51.280;12.584;2023-06-10T23:31:41;5.57;;;4.97;;
14001;SDS011;7076;51.280;12.584;2023-06-10T23:36:44;7.60;;;4.75;;
14001;SDS011;7076;51.280;12.584;2023-06-10T23:41:49;7.45;;;4.90;;
14001;SDS011;7076;51.280;12.584;2023-06-10T23:46:52;8.27;;;5.07;;
14001;SDS011;7076;51.280;12.584;2023-06-10T23:51:55;7.10;;;5.00;;
14001;SDS011;7076;51.280;12.584;2023-06-10T23:56:59;7.65;;;4.90;;
